Weather at Kahului Airport

Public forecast

Using degrees Fahrenheit for public forecast. Weather courtesy of forecast.io.

Current aviation weather report (METAR) for Kahului Airport

Retrieved 2021/06/12 20:54 UTC (12 minutes ago):

PHOG 122054Z 04018KT 10SM FEW030 SCT045 29/17 A3013

Aviation forecast (TAF) for Kahului Airport

Retrieved 2021/06/12 18:22 UTC (3 hours ago):

TAF PHOG 121720Z 1218/1318 07009KT P6SM SCT045 FM121900 05018G26KT P6SM FEW025 SCT045 FM130500 07009KT P6SM FEW035 SCT050 AMD LTD TO VIS AND WIND 1309/1316